createdAt,value
2022-08-16T00:02:33.545Z,12.48
2022-08-16T00:05:01.953Z,12.98
2022-08-16T00:07:31.688Z,12.43
2022-08-16T00:10:01.751Z,12.35
2022-08-16T00:12:31.250Z,12.82
2022-08-16T00:15:02.338Z,14.23
2022-08-16T00:17:30.196Z,13.90
2022-08-16T00:20:21.080Z,12.93
2022-08-16T00:22:49.823Z,13.32
2022-08-16T00:26:13.538Z,13.00
2022-08-16T00:28:12.425Z,14.75
2022-08-16T00:30:40.541Z,14.95
2022-08-16T00:33:10.015Z,14.63
2022-08-16T00:35:39.577Z,13.57
2022-08-16T00:38:41.514Z,13.75
2022-08-16T00:40:59.371Z,13.77
2022-08-16T00:43:42.901Z,13.60
2022-08-16T00:46:33.042Z,14.60
2022-08-16T00:49:05.498Z,12.27
2022-08-16T00:51:33.612Z,13.75
2022-08-16T00:54:01.872Z,13.68
2022-08-16T00:56:56.981Z,13.35
2022-08-16T00:59:27.438Z,13.55
2022-08-16T01:01:56.429Z,13.38
2022-08-16T01:04:30.841Z,13.68
2022-08-16T01:07:02.434Z,12.43
2022-08-16T01:09:33.483Z,11.70
2022-08-16T01:12:08.381Z,11.63
2022-08-16T01:14:43.505Z,11.93
2022-08-16T01:17:13.878Z,11.98
2022-08-16T01:19:45.233Z,12.82
2022-08-16T01:22:48.192Z,12.50
2022-08-16T01:25:13.856Z,12.90
2022-08-16T01:27:47.076Z,14.38
2022-08-16T01:30:20.381Z,15.18
2022-08-16T01:33:02.137Z,18.88
2022-08-16T01:35:42.258Z,14.15
2022-08-16T01:38:20.079Z,14.65
2022-08-16T01:40:50.631Z,15.77
2022-08-16T01:43:20.938Z,14.82
2022-08-16T01:45:57.919Z,14.00
2022-08-16T01:48:30.517Z,15.43
2022-08-16T01:51:08.811Z,15.30
2022-08-16T01:53:44.338Z,13.63
2022-08-16T01:56:23.446Z,14.90
2022-08-16T01:58:53.220Z,13.82
2022-08-16T02:01:21.355Z,14.82
2022-08-16T02:03:50.304Z,14.82
2022-08-16T02:06:34.445Z,14.65
2022-08-16T02:09:11.733Z,14.23
2022-08-16T02:11:47.511Z,15.07
2022-08-16T02:14:18.673Z,14.48
2022-08-16T02:16:49.760Z,13.70
2022-08-16T02:19:19.892Z,15.48
2022-08-16T02:22:08.790Z,14.85
2022-08-16T02:24:46.019Z,14.02
2022-08-16T02:27:16.090Z,16.10
2022-08-16T02:29:45.116Z,14.52
2022-08-16T02:32:51.180Z,15.95
2022-08-16T02:35:05.611Z,15.10
2022-08-16T02:37:51.646Z,15.27
2022-08-16T02:40:23.048Z,14.90
2022-08-16T02:42:53.895Z,15.77
2022-08-16T02:45:25.018Z,15.10
2022-08-16T02:48:01.560Z,15.05
2022-08-16T02:50:54.492Z,15.88
2022-08-16T02:53:32.936Z,14.68
2022-08-16T02:56:00.858Z,14.43
2022-08-16T02:58:32.568Z,15.80
2022-08-16T03:01:01.434Z,14.95
2022-08-16T03:04:30.199Z,14.77
2022-08-16T03:06:39.634Z,15.07
2022-08-16T03:09:13.756Z,15.35
2022-08-16T03:11:43.393Z,15.15
2022-08-16T03:14:13.651Z,15.68
2022-08-16T03:16:59.935Z,15.82
2022-08-16T03:19:46.940Z,16.08
2022-08-16T03:22:19.156Z,14.07
2022-08-16T03:24:58.677Z,16.08
2022-08-16T03:27:30.722Z,14.75
2022-08-16T03:30:17.517Z,15.45
2022-08-16T03:32:47.162Z,15.13
2022-08-16T03:35:17.597Z,16.40
2022-08-16T03:38:01.911Z,16.95
2022-08-16T03:40:33.228Z,16.05
2022-08-16T03:43:20.259Z,15.95
2022-08-16T03:45:52.772Z,15.63
2022-08-16T03:48:36.689Z,15.48
2022-08-16T03:51:09.997Z,14.98
2022-08-16T03:53:41.676Z,15.25
2022-08-16T03:56:19.511Z,15.15
2022-08-16T03:58:50.874Z,15.77
2022-08-16T04:01:20.948Z,17.10
2022-08-16T04:03:50.232Z,16.20
2022-08-16T04:06:18.602Z,16.20
2022-08-16T04:08:48.136Z,16.02
2022-08-16T04:11:17.114Z,16.02
2022-08-16T04:14:01.515Z,16.38
2022-08-16T04:16:34.910Z,18.00
2022-08-16T04:19:04.588Z,17.27
2022-08-16T04:21:34.651Z,18.83
2022-08-16T04:24:07.769Z,17.40
2022-08-16T04:26:36.985Z,16.85
2022-08-16T04:29:16.747Z,18.20
2022-08-16T04:31:56.645Z,18.42
2022-08-16T04:34:29.166Z,18.77
2022-08-16T04:36:58.198Z,17.25
2022-08-16T04:39:44.990Z,18.73
2022-08-16T04:42:16.227Z,19.02
2022-08-16T04:44:53.913Z,18.92
2022-08-16T04:47:33.114Z,17.35
2022-08-16T04:50:02.128Z,17.90
2022-08-16T04:52:35.843Z,19.30
2022-08-16T04:55:07.308Z,18.13
2022-08-16T04:57:36.903Z,18.45
2022-08-16T05:00:32.117Z,19.10
2022-08-16T05:02:58.808Z,20.98
2022-08-16T05:05:30.620Z,20.02
2022-08-16T05:08:29.216Z,21.27
2022-08-16T05:10:51.488Z,18.25
2022-08-16T05:13:19.713Z,23.80
2022-08-16T05:15:49.788Z,23.45
2022-08-16T05:18:26.875Z,23.00
2022-08-16T05:21:09.425Z,21.67
2022-08-16T05:23:37.770Z,24.65
2022-08-16T05:26:06.007Z,23.50
2022-08-16T05:28:47.782Z,21.77
2022-08-16T05:31:24.004Z,23.60
2022-08-16T05:33:59.959Z,21.98
2022-08-16T05:36:33.893Z,22.45
2022-08-16T05:39:04.361Z,24.63
2022-08-16T05:41:32.291Z,23.52
2022-08-16T05:44:05.464Z,25.20
2022-08-16T05:46:49.072Z,22.33
2022-08-16T05:49:22.252Z,21.40
2022-08-16T05:51:51.363Z,22.80
2022-08-16T05:54:25.078Z,21.38
2022-08-16T05:56:54.221Z,20.63
2022-08-16T05:59:24.265Z,23.35
2022-08-16T06:01:55.149Z,22.48
2022-08-16T06:04:35.481Z,24.38
2022-08-16T06:07:09.496Z,21.67
2022-08-16T06:09:52.592Z,21.25
2022-08-16T06:12:27.920Z,20.40
2022-08-16T06:14:59.823Z,21.75
2022-08-16T06:17:41.777Z,19.55
2022-08-16T06:20:18.386Z,20.75
2022-08-16T06:22:58.727Z,18.70
2022-08-16T06:25:36.474Z,20.50
2022-08-16T06:28:09.891Z,18.63
2022-08-16T06:30:43.870Z,18.40
2022-08-16T06:33:22.352Z,18.05
2022-08-16T06:35:54.726Z,20.95
2022-08-16T06:38:32.474Z,20.50
2022-08-16T06:41:03.759Z,18.40
2022-08-16T06:43:31.913Z,18.33
2022-08-16T06:46:00.685Z,16.33
2022-08-16T06:48:33.773Z,21.23
2022-08-16T06:51:04.221Z,14.93
2022-08-16T06:53:35.519Z,16.45
2022-08-16T06:56:14.570Z,16.13
2022-08-16T06:58:52.487Z,14.48
2022-08-16T07:01:43.222Z,14.75
2022-08-16T07:04:11.872Z,11.18
2022-08-16T07:06:43.344Z,13.45
2022-08-16T07:09:12.626Z,13.10
2022-08-16T07:11:47.359Z,17.17
2022-08-16T07:14:24.724Z,11.45
2022-08-16T07:16:55.477Z,9.90
2022-08-16T07:20:01.926Z,10.27
2022-08-16T07:22:37.587Z,11.98
2022-08-16T07:25:03.669Z,9.70
2022-08-16T07:27:37.546Z,9.65
2022-08-16T07:30:45.590Z,10.25
2022-08-16T07:32:56.933Z,10.32
2022-08-16T07:35:25.429Z,10.25
2022-08-16T07:37:54.779Z,10.55
2022-08-16T07:40:49.080Z,7.90
2022-08-16T07:43:11.649Z,9.88
2022-08-16T07:45:39.720Z,9.23
2022-08-16T07:48:12.459Z,8.52
2022-08-16T07:50:55.808Z,7.88
2022-08-16T07:53:29.060Z,8.82
2022-08-16T07:55:58.257Z,10.02
2022-08-16T07:58:34.412Z,7.55
2022-08-16T08:01:10.600Z,9.57
2022-08-16T08:03:47.680Z,8.15
2022-08-16T08:06:17.323Z,7.97
2022-08-16T08:08:51.503Z,9.35
2022-08-16T08:11:24.054Z,8.40
2022-08-16T08:14:03.190Z,9.82
2022-08-16T08:16:32.237Z,8.80
2022-08-16T08:19:02.751Z,14.57
2022-08-16T08:21:59.746Z,11.20
2022-08-16T08:24:22.180Z,7.80
2022-08-16T08:27:00.290Z,7.07
2022-08-16T08:29:37.309Z,9.30
2022-08-16T08:32:58.178Z,7.43
2022-08-16T08:34:56.312Z,8.00
2022-08-16T08:37:54.223Z,11.45
2022-08-16T08:40:24.762Z,10.93
2022-08-16T08:43:00.295Z,9.05
2022-08-16T08:45:53.343Z,8.50
2022-08-16T08:48:33.455Z,9.50
2022-08-16T08:51:04.524Z,9.07
2022-08-16T08:53:33.374Z,7.78
2022-08-16T08:56:23.039Z,7.10
2022-08-16T08:58:53.977Z,8.45
2022-08-16T09:01:31.852Z,8.23
2022-08-16T09:04:05.910Z,9.40
2022-08-16T09:06:35.022Z,9.10
2022-08-16T09:09:03.556Z,8.77
2022-08-16T09:11:41.085Z,8.43
2022-08-16T09:14:23.892Z,7.60
2022-08-16T09:17:01.148Z,15.70
2022-08-16T09:19:33.922Z,8.68
2022-08-16T09:22:02.446Z,8.32
2022-08-16T09:24:46.615Z,8.02
2022-08-16T09:27:20.176Z,8.57
2022-08-16T09:29:48.965Z,7.30
2022-08-16T09:32:30.474Z,9.07
2022-08-16T09:34:59.691Z,9.38
2022-08-16T09:37:29.586Z,8.65
2022-08-16T09:39:59.541Z,7.93
2022-08-16T09:42:30.446Z,7.03
2022-08-16T09:45:18.798Z,10.45
2022-08-16T09:47:56.173Z,7.53
2022-08-16T09:50:33.166Z,9.20
2022-08-16T09:53:15.270Z,9.18
2022-08-16T09:55:49.326Z,9.93
2022-08-16T09:58:41.368Z,7.93
2022-08-16T10:01:11.281Z,9.13
2022-08-16T10:04:02.202Z,13.45
2022-08-16T10:06:40.841Z,8.55
2022-08-16T10:09:16.460Z,10.55
2022-08-16T10:12:11.724Z,11.40
2022-08-16T10:14:51.496Z,12.45
2022-08-16T10:17:22.676Z,9.25
2022-08-16T10:19:56.193Z,8.52
2022-08-16T10:22:24.565Z,8.40
2022-08-16T10:24:59.774Z,6.90
2022-08-16T10:27:30.088Z,7.90
2022-08-16T10:30:24.914Z,8.13
2022-08-16T10:32:54.364Z,8.27
2022-08-16T10:35:22.859Z,5.93
2022-08-16T10:37:52.259Z,7.75
2022-08-16T10:40:29.279Z,6.97
2022-08-16T10:43:00.079Z,7.63
2022-08-16T10:45:36.894Z,7.70
2022-08-16T10:48:27.277Z,7.10
2022-08-16T10:50:58.493Z,8.35
2022-08-16T10:53:33.228Z,8.80
2022-08-16T10:56:02.938Z,11.07
2022-08-16T10:58:34.669Z,10.65
2022-08-16T11:03:57.298Z,7.10
2022-08-16T11:06:28.729Z,7.78
2022-08-16T11:14:36.266Z,9.93
2022-08-16T11:17:11.404Z,7.97
2022-08-16T11:22:42.153Z,7.70
2022-08-16T11:28:08.085Z,8.35
2022-08-16T11:30:38.618Z,7.88
2022-08-16T11:33:09.145Z,10.45
2022-08-16T11:35:43.804Z,7.53
2022-08-16T11:38:47.511Z,7.10
2022-08-16T11:41:03.536Z,8.90
2022-08-16T11:43:35.304Z,8.05
2022-08-16T11:46:43.537Z,9.13
2022-08-16T11:48:55.766Z,8.82
2022-08-16T11:51:23.988Z,13.18
2022-08-16T11:53:52.660Z,8.20
2022-08-16T11:56:40.077Z,7.97
2022-08-16T11:59:09.997Z,10.32
2022-08-16T12:01:55.379Z,8.65
2022-08-16T12:04:29.550Z,8.77
2022-08-16T12:06:58.213Z,11.55
2022-08-16T12:09:29.609Z,19.35
2022-08-16T12:12:03.100Z,9.82
2022-08-16T12:14:35.322Z,9.60
2022-08-16T12:17:08.448Z,10.32
2022-08-16T12:19:38.302Z,16.00
2022-08-16T12:22:19.075Z,12.57
2022-08-16T12:24:51.885Z,17.88
2022-08-16T12:27:23.096Z,16.02
2022-08-16T12:29:52.684Z,10.45
2022-08-16T12:32:37.733Z,10.68
2022-08-16T12:35:13.072Z,6.63
2022-08-16T12:37:42.394Z,9.27
2022-08-16T12:40:24.191Z,8.35
2022-08-16T12:42:58.985Z,7.68
2022-08-16T12:45:29.467Z,6.28
2022-08-16T12:48:33.758Z,7.32
2022-08-16T12:51:13.366Z,8.10
2022-08-16T12:53:46.285Z,9.02
2022-08-16T12:56:15.125Z,7.65
2022-08-16T12:58:50.555Z,10.50
2022-08-16T13:01:22.605Z,7.28
2022-08-16T13:04:11.633Z,11.48
2022-08-16T13:06:43.099Z,9.55
2022-08-16T13:09:23.726Z,8.35
2022-08-16T13:12:03.510Z,9.15
2022-08-16T13:14:34.746Z,11.35
2022-08-16T13:17:06.576Z,9.95
2022-08-16T13:20:05.601Z,8.55
2022-08-16T13:22:26.205Z,11.95
2022-08-16T13:24:54.602Z,10.55
2022-08-16T13:28:10.804Z,15.80
2022-08-16T13:30:36.121Z,12.82
2022-08-16T13:33:01.312Z,8.38
2022-08-16T13:35:42.899Z,7.88
2022-08-16T13:38:24.191Z,10.23
2022-08-16T13:40:56.039Z,11.07
2022-08-16T13:43:26.659Z,16.38
2022-08-16T13:45:55.999Z,9.90
2022-08-16T13:48:25.191Z,9.32
2022-08-16T13:50:54.933Z,8.27
2022-08-16T13:53:26.641Z,10.23
2022-08-16T13:55:57.870Z,9.88
2022-08-16T13:58:37.560Z,10.43
2022-08-16T14:01:17.209Z,8.60
2022-08-16T14:03:46.005Z,9.45
2022-08-16T14:06:15.082Z,9.05
2022-08-16T14:08:59.289Z,10.32
2022-08-16T14:11:34.374Z,7.78
2022-08-16T14:14:05.513Z,7.20
2022-08-16T14:16:35.326Z,7.97
2022-08-16T14:19:06.131Z,7.60
2022-08-16T14:21:35.204Z,17.00
2022-08-16T14:24:12.876Z,12.50
2022-08-16T14:26:54.778Z,10.05
2022-08-16T14:29:28.443Z,9.52
2022-08-16T14:32:00.217Z,6.95
2022-08-16T14:34:29.814Z,7.68
2022-08-16T14:36:58.112Z,10.30
2022-08-16T14:39:29.658Z,9.38
2022-08-16T14:42:05.240Z,10.18
2022-08-16T14:44:33.831Z,7.18
2022-08-16T14:47:01.917Z,6.95
2022-08-16T14:49:33.634Z,6.53
2022-08-16T14:52:02.999Z,10.10
2022-08-16T14:54:33.749Z,7.07
2022-08-16T14:57:01.726Z,6.40
2022-08-16T14:59:32.879Z,6.45
2022-08-16T15:02:12.396Z,8.35
2022-08-16T15:04:55.621Z,6.20
2022-08-16T15:07:23.974Z,7.68
2022-08-16T15:10:01.670Z,5.75
2022-08-16T15:12:33.555Z,6.28
2022-08-16T15:15:04.470Z,7.47
2022-08-16T15:17:42.240Z,7.38
2022-08-16T15:20:26.269Z,8.48
2022-08-16T15:22:55.087Z,8.65
2022-08-16T15:25:29.559Z,6.35
2022-08-16T15:27:58.862Z,6.15
2022-08-16T15:30:57.363Z,6.10
2022-08-16T15:33:19.693Z,8.88
2022-08-16T15:35:50.287Z,6.63
2022-08-16T15:38:56.865Z,7.45
2022-08-16T15:41:07.609Z,6.25
2022-08-16T15:43:40.029Z,6.15
2022-08-16T15:46:35.490Z,7.30
2022-08-16T15:49:13.324Z,7.15
2022-08-16T15:51:44.707Z,8.05
2022-08-16T15:54:29.297Z,6.90
2022-08-16T15:57:10.993Z,9.60
2022-08-16T15:59:49.149Z,9.65
2022-08-16T16:02:29.674Z,7.03
2022-08-16T16:05:01.771Z,7.22
2022-08-16T16:07:31.050Z,8.15
2022-08-16T16:09:59.669Z,8.82
2022-08-16T16:12:54.494Z,10.07
2022-08-16T16:15:22.629Z,9.85
2022-08-16T16:17:52.340Z,9.73
2022-08-16T16:20:27.210Z,6.90
2022-08-16T16:22:59.012Z,6.35
2022-08-16T16:25:29.345Z,8.02
2022-08-16T16:28:00.694Z,7.05
2022-08-16T16:30:33.114Z,7.13
2022-08-16T16:33:15.591Z,6.80
2022-08-16T16:35:56.691Z,7.13
2022-08-16T16:38:29.891Z,7.00
2022-08-16T16:40:58.097Z,5.88
2022-08-16T16:43:32.000Z,6.00
2022-08-16T16:46:02.182Z,9.80
2022-08-16T16:48:34.714Z,6.90
2022-08-16T16:51:09.163Z,6.10
2022-08-16T16:53:39.418Z,6.57
2022-08-16T16:56:08.945Z,5.85
2022-08-16T16:59:01.099Z,7.70
2022-08-16T17:01:57.698Z,6.13
2022-08-16T17:04:31.762Z,8.43
2022-08-16T17:07:02.423Z,6.70
2022-08-16T17:09:31.105Z,6.35
2022-08-16T17:11:59.674Z,8.80
2022-08-16T17:14:33.160Z,10.45
2022-08-16T17:17:02.531Z,11.13
2022-08-16T17:19:31.795Z,10.05
2022-08-16T17:22:00.376Z,9.23
2022-08-16T17:27:33.232Z,9.38
2022-08-16T17:30:15.557Z,12.52
2022-08-16T17:32:50.511Z,9.27
2022-08-16T17:35:34.233Z,8.32
2022-08-16T17:38:06.295Z,7.55
2022-08-16T17:39:26.680Z,8.05
2022-08-16T17:40:46.883Z,9.57
2022-08-16T17:43:27.709Z,9.85
2022-08-16T17:45:58.149Z,8.52
2022-08-16T17:48:27.200Z,7.80
2022-08-16T17:50:56.092Z,7.30
2022-08-16T17:53:24.993Z,7.97
2022-08-16T17:55:54.705Z,7.13
2022-08-16T17:58:24.268Z,12.77
2022-08-16T18:00:54.698Z,7.93
2022-08-16T18:04:08.958Z,7.38
2022-08-16T18:06:18.614Z,7.80
2022-08-16T18:08:48.513Z,8.05
2022-08-16T18:11:25.807Z,9.57
2022-08-16T18:13:54.996Z,14.25
2022-08-16T18:16:23.357Z,10.63
2022-08-16T18:18:52.668Z,12.73
2022-08-16T18:21:37.829Z,21.00
2022-08-16T18:24:06.358Z,16.95
2022-08-16T18:26:34.510Z,12.10
2022-08-16T18:29:02.656Z,8.18
2022-08-16T18:31:30.623Z,8.25
2022-08-16T18:34:01.336Z,7.90
2022-08-16T18:36:29.724Z,9.05
2022-08-16T18:38:57.996Z,8.13
2022-08-16T18:41:29.019Z,8.02
2022-08-16T18:44:26.633Z,10.90
2022-08-16T18:46:50.983Z,8.73
2022-08-16T18:49:21.117Z,9.68
2022-08-16T18:51:50.801Z,11.18
2022-08-16T18:54:19.209Z,8.82
2022-08-16T18:56:56.850Z,8.57
2022-08-16T18:59:28.279Z,8.50
2022-08-16T19:01:59.670Z,11.38
2022-08-16T19:04:56.291Z,8.68
2022-08-16T19:07:18.266Z,8.13
2022-08-16T19:09:46.124Z,8.70
2022-08-16T19:12:15.939Z,8.57
2022-08-16T19:14:44.358Z,11.15
2022-08-16T19:17:12.364Z,9.80
2022-08-16T19:19:41.721Z,9.00
2022-08-16T19:22:09.760Z,9.23
2022-08-16T19:24:37.820Z,8.90
2022-08-16T19:27:10.237Z,9.05
2022-08-16T19:29:38.180Z,9.90
2022-08-16T19:32:16.381Z,10.05
2022-08-16T19:34:45.878Z,9.80
2022-08-16T19:37:14.035Z,9.77
2022-08-16T19:39:42.580Z,9.25
2022-08-16T19:42:13.337Z,9.18
2022-08-16T19:44:42.512Z,9.75
2022-08-16T19:47:11.558Z,10.45
2022-08-16T19:49:39.803Z,12.32
2022-08-16T19:52:14.219Z,9.75
2022-08-16T19:54:42.679Z,10.35
2022-08-16T19:57:11.487Z,12.15
2022-08-16T19:59:40.895Z,9.73
2022-08-16T20:02:25.526Z,11.18
2022-08-16T20:05:05.654Z,11.80
2022-08-16T20:07:34.909Z,10.85
2022-08-16T20:10:02.867Z,11.90
2022-08-16T20:12:30.948Z,10.70
2022-08-16T20:14:59.492Z,10.50
2022-08-16T20:17:27.571Z,11.68
2022-08-16T20:19:56.002Z,10.70
2022-08-16T20:22:51.896Z,10.73
2022-08-16T20:25:20.026Z,10.32
2022-08-16T20:27:56.504Z,10.85
2022-08-16T20:30:25.657Z,12.55
2022-08-16T20:32:54.317Z,11.57
2022-08-16T20:35:25.329Z,12.00
2022-08-16T20:37:53.656Z,10.95
2022-08-16T20:40:35.121Z,12.55
2022-08-16T20:43:07.528Z,11.82
2022-08-16T20:45:36.807Z,13.07
2022-08-16T20:48:05.953Z,12.13
2022-08-16T20:50:35.120Z,12.77
2022-08-16T20:53:03.429Z,17.52
2022-08-16T20:55:35.998Z,13.95
2022-08-16T20:58:04.407Z,12.98
2022-08-16T21:00:33.687Z,11.85
2022-08-16T21:03:03.021Z,12.18
2022-08-16T21:05:31.789Z,13.52
2022-08-16T21:07:59.933Z,11.80
2022-08-16T21:10:28.746Z,11.95
2022-08-16T21:13:03.049Z,12.13
2022-08-16T21:15:33.382Z,11.73
2022-08-16T21:18:03.135Z,11.77
2022-08-16T21:20:31.790Z,13.50
2022-08-16T21:23:02.007Z,12.43
2022-08-16T21:25:30.563Z,11.45
2022-08-16T21:28:41.465Z,10.60
2022-08-16T21:30:49.444Z,11.18
2022-08-16T21:33:19.699Z,11.32
2022-08-16T21:35:49.365Z,12.45
2022-08-16T21:38:29.809Z,12.40
2022-08-16T21:40:58.985Z,11.50
2022-08-16T21:43:31.960Z,11.27
2022-08-16T21:46:01.457Z,11.25
2022-08-16T21:48:33.860Z,11.80
2022-08-16T21:51:03.943Z,12.35
2022-08-16T21:53:32.236Z,12.20
2022-08-16T21:56:01.624Z,11.75
2022-08-16T21:58:32.362Z,12.98
2022-08-16T22:01:01.394Z,11.52
2022-08-16T22:03:30.109Z,10.85
2022-08-16T22:06:13.560Z,10.95
2022-08-16T22:08:50.549Z,11.30
2022-08-16T22:11:20.635Z,12.05
2022-08-16T22:13:57.189Z,12.40
2022-08-16T22:16:27.311Z,11.98
2022-08-16T22:18:55.551Z,12.40
2022-08-16T22:21:23.583Z,11.77
2022-08-16T22:23:56.701Z,10.93
2022-08-16T22:26:30.111Z,12.32
2022-08-16T22:29:00.880Z,11.07
2022-08-16T22:31:28.962Z,12.48
2022-08-16T22:33:58.021Z,11.88
2022-08-16T22:36:29.410Z,13.07
2022-08-16T22:38:59.385Z,11.73
2022-08-16T22:41:31.366Z,12.73
2022-08-16T22:44:02.120Z,11.05
2022-08-16T22:46:30.499Z,11.32
2022-08-16T22:48:58.811Z,13.77
2022-08-16T22:51:28.344Z,14.93
2022-08-16T22:53:57.194Z,12.77
2022-08-16T22:56:26.104Z,12.18
2022-08-16T22:58:54.829Z,14.60
2022-08-16T23:01:26.740Z,12.70
2022-08-16T23:03:55.706Z,12.85
2022-08-16T23:06:24.852Z,13.48
2022-08-16T23:08:52.929Z,13.18
2022-08-16T23:11:23.943Z,12.70
2022-08-16T23:13:54.474Z,12.48
2022-08-16T23:16:33.531Z,13.30
2022-08-16T23:19:03.411Z,11.88
2022-08-16T23:21:32.153Z,13.18
2022-08-16T23:24:00.193Z,13.25
2022-08-16T23:26:44.187Z,13.82
2022-08-16T23:29:23.501Z,13.18
2022-08-16T23:31:59.505Z,12.70
2022-08-16T23:34:29.249Z,13.38
2022-08-16T23:36:57.177Z,13.68
2022-08-16T23:39:25.589Z,13.13
2022-08-16T23:41:53.542Z,13.65
2022-08-16T23:44:57.684Z,13.18
2022-08-16T23:47:10.943Z,12.93
2022-08-16T23:49:55.925Z,13.57
2022-08-16T23:52:53.443Z,14.00
2022-08-16T23:55:16.181Z,14.95
2022-08-16T23:57:45.030Z,15.60
